Time;durP1;ratioP1;P1;durP2;ratioP2;P2;SDS_P1;SDS_P2;PMS_P1;PMS_P2;Temp;Humidity;BMP_temperature;BMP_pressure;BME280_temperature;BME280_humidity;BME280_pressure;Samples;Min_cycle;Max_cycle;Signal;HPM_P1;HPM_P2
2023/12/18 00:01:51;;;;;;;38.83;18.95;;;;;;;;;;10466473;28;20049;-76
2023/12/18 00:06:51;;;;;;;36.50;18.73;;;;;;;;;;10455034;28;20102;-77
2023/12/18 00:11:51;;;;;;;32.17;16.83;;;;;;;;;;10465181;28;20024;-75
2023/12/18 00:16:51;;;;;;;39.60;19.60;;;;;;;;;;10463446;28;20020;-75
2023/12/18 00:21:51;;;;;;;41.88;19.48;;;;;;;;;;10470529;28;20025;-78
2023/12/18 00:26:52;;;;;;;47.97;22.58;;;;;;;;;;10484738;28;20108;-75
2023/12/18 00:31:52;;;;;;;41.70;21.17;;;;;;;;;;10466267;28;20048;-78
2023/12/18 00:36:52;;;;;;;37.80;20.75;;;;;;;;;;10465646;28;20101;-78
2023/12/18 00:41:52;;;;;;;46.72;19.70;;;;;;;;;;10464904;28;20060;-75
2023/12/18 00:46:53;;;;;;;41.22;20.15;;;;;;;;;;10482906;28;20103;-73
2023/12/18 00:51:54;;;;;;;40.83;19.38;;;;;;;;;;10464917;28;20033;-75
2023/12/18 00:56:54;;;;;;;39.72;20.33;;;;;;;;;;10464968;28;20059;-78
2023/12/18 01:01:54;;;;;;;53.07;22.67;;;;;;;;;;10464637;28;20056;-75
2023/12/18 01:06:54;;;;;;;40.33;18.42;;;;;;;;;;10481963;28;20024;-76
2023/12/18 01:11:55;;;;;;;36.80;19.98;;;;;;;;;;10488856;28;20399;-75
2023/12/18 01:16:55;;;;;;;51.67;22.30;;;;;;;;;;10472610;28;20024;-76
2023/12/18 01:21:55;;;;;;;41.40;17.20;;;;;;;;;;10472779;28;20494;-75
2023/12/18 01:26:55;;;;;;;38.78;18.67;;;;;;;;;;10473579;28;20465;-76
2023/12/18 01:31:56;;;;;;;44.58;20.63;;;;;;;;;;10472805;28;20139;-80
2023/12/18 01:36:56;;;;;;;40.50;20.52;;;;;;;;;;10473095;28;20097;-75
2023/12/18 01:41:57;;;;;;;34.60;18.88;;;;;;;;;;10471777;28;20021;-79
2023/12/18 01:46:58;;;;;;;37.70;18.63;;;;;;;;;;10472203;28;20020;-79
2023/12/18 01:51:58;;;;;;;51.38;21.50;;;;;;;;;;10489037;28;20047;-75
2023/12/18 01:56:59;;;;;;;36.60;17.90;;;;;;;;;;10471262;28;20020;-75
2023/12/18 02:01:59;;;;;;;46.05;19.15;;;;;;;;;;10474492;23;20374;-74
2023/12/18 02:07:00;;;;;;;33.90;16.93;;;;;;;;;;10447253;28;20032;-79
2023/12/18 02:12:01;;;;;;;30.02;15.02;;;;;;;;;;10388725;28;20838;-75
2023/12/18 02:17:01;;;;;;;35.25;19.35;;;;;;;;;;10388376;28;20044;-74
2023/12/18 02:22:01;;;;;;;42.10;19.80;;;;;;;;;;10404059;28;20439;-74
2023/12/18 02:27:02;;;;;;;24.88;14.40;;;;;;;;;;10404248;28;20376;-75
2023/12/18 02:32:02;;;;;;;32.42;14.52;;;;;;;;;;10404097;28;20040;-75
2023/12/18 02:37:03;;;;;;;30.65;14.00;;;;;;;;;;10392135;28;20104;-74
2023/12/18 02:42:03;;;;;;;30.20;15.00;;;;;;;;;;10402325;28;20108;-74
2023/12/18 02:47:03;;;;;;;27.90;12.47;;;;;;;;;;10385692;28;20021;-75
2023/12/18 02:52:04;;;;;;;22.80;11.45;;;;;;;;;;10403588;28;20598;-75
2023/12/18 02:57:04;;;;;;;25.33;11.38;;;;;;;;;;10403572;28;20099;-73
2023/12/18 03:02:04;;;;;;;33.45;15.40;;;;;;;;;;10401616;28;20045;-75
2023/12/18 03:07:04;;;;;;;22.83;12.93;;;;;;;;;;10385532;28;20025;-81
2023/12/18 03:12:05;;;;;;;22.63;12.68;;;;;;;;;;10384942;28;20017;-74
2023/12/18 03:17:05;;;;;;;23.45;10.55;;;;;;;;;;10384494;28;20079;-74
2023/12/18 03:22:06;;;;;;;20.25;11.52;;;;;;;;;;10401385;28;20464;-76
2023/12/18 03:27:06;;;;;;;21.25;10.70;;;;;;;;;;10400975;28;20032;-74
2023/12/18 03:32:06;;;;;;;23.20;11.97;;;;;;;;;;10399679;28;20542;-73
2023/12/18 03:37:06;;;;;;;27.00;13.40;;;;;;;;;;10401357;28;20279;-74
2023/12/18 03:42:07;;;;;;;27.05;14.80;;;;;;;;;;10402716;28;20857;-74
2023/12/18 03:47:07;;;;;;;29.02;15.30;;;;;;;;;;10384766;28;20461;-75
2023/12/18 03:52:07;;;;;;;26.55;15.15;;;;;;;;;;10384597;28;20022;-78
2023/12/18 03:57:07;;;;;;;32.28;15.73;;;;;;;;;;10401317;28;20099;-76
2023/12/18 04:02:07;;;;;;;25.10;13.98;;;;;;;;;;10384401;28;20045;-75
2023/12/18 04:07:08;;;;;;;26.97;14.37;;;;;;;;;;10402627;28;20018;-75
2023/12/18 04:12:09;;;;;;;25.23;14.07;;;;;;;;;;10409561;28;20267;-77
2023/12/18 04:17:09;;;;;;;29.67;14.98;;;;;;;;;;10402940;28;20068;-75
2023/12/18 04:22:10;;;;;;;28.90;14.85;;;;;;;;;;10401161;28;20468;-74
2023/12/18 04:27:10;;;;;;;23.45;13.35;;;;;;;;;;10401718;28;20064;-74
2023/12/18 04:32:10;;;;;;;18.15;11.13;;;;;;;;;;10398259;28;20297;-75
2023/12/18 04:37:10;;;;;;;20.83;9.95;;;;;;;;;;10403846;28;20026;-75
2023/12/18 04:42:11;;;;;;;25.35;12.18;;;;;;;;;;10397488;28;20022;-74
2023/12/18 04:47:11;;;;;;;24.20;9.88;;;;;;;;;;10408554;28;20028;-79
2023/12/18 04:52:11;;;;;;;22.45;10.63;;;;;;;;;;10409807;28;20024;-74
2023/12/18 04:57:11;;;;;;;29.70;13.45;;;;;;;;;;10407157;28;20021;-75
2023/12/18 05:02:12;;;;;;;24.10;11.40;;;;;;;;;;10407656;28;20041;-75
2023/12/18 05:07:12;;;;;;;27.95;13.45;;;;;;;;;;10407800;28;20086;-76
2023/12/18 05:12:12;;;;;;;34.00;15.60;;;;;;;;;;10390969;28;20499;-80
2023/12/18 05:17:12;;;;;;;27.08;15.35;;;;;;;;;;10410115;28;20060;-80
2023/12/18 05:22:12;;;;;;;31.70;16.55;;;;;;;;;;10406384;28;20084;-77
2023/12/18 05:27:13;;;;;;;26.95;14.30;;;;;;;;;;10387886;28;20036;-75
2023/12/18 05:32:13;;;;;;;32.05;17.77;;;;;;;;;;10390855;28;20025;-76
2023/12/18 05:37:13;;;;;;;38.50;19.00;;;;;;;;;;10406504;28;20045;-75
2023/12/18 05:42:19;;;;;;;37.87;18.03;;;;;;;;;;10406153;28;20401;-79
2023/12/18 05:47:19;;;;;;;39.67;18.42;;;;;;;;;;10406492;28;20025;-81
2023/12/18 05:52:20;;;;;;;42.03;17.52;;;;;;;;;;10390770;28;20037;-78
2023/12/18 05:57:21;;;;;;;30.73;16.90;;;;;;;;;;10385924;28;20242;-78
2023/12/18 06:02:21;;;;;;;48.88;25.88;;;;;;;;;;10411737;28;20141;-79
2023/12/18 06:07:22;;;;;;;42.90;20.63;;;;;;;;;;10396075;28;20451;-78
2023/12/18 06:12:22;;;;;;;43.50;21.60;;;;;;;;;;10395426;28;20363;-76
2023/12/18 06:17:23;;;;;;;38.38;18.73;;;;;;;;;;10390593;28;20442;-75
2023/12/18 06:22:23;;;;;;;36.53;19.05;;;;;;;;;;10384636;28;20057;-81
2023/12/18 06:27:24;;;;;;;36.45;17.98;;;;;;;;;;10406556;28;20052;-81
2023/12/18 06:32:24;;;;;;;36.65;18.73;;;;;;;;;;10404675;28;20022;-79
2023/12/18 06:37:24;;;;;;;35.75;18.83;;;;;;;;;;10403750;28;20021;-76
2023/12/18 06:42:24;;;;;;;39.85;20.40;;;;;;;;;;10402963;28;20029;-77
2023/12/18 06:47:25;;;;;;;41.45;20.35;;;;;;;;;;10386863;28;20018;-80
2023/12/18 06:52:25;;;;;;;43.57;19.07;;;;;;;;;;10387065;28;20025;-78
2023/12/18 06:57:25;;;;;;;39.88;19.42;;;;;;;;;;10364545;28;20316;-76
2023/12/18 07:02:29;;;;;;;49.83;22.67;;;;;;;;;;10382117;28;20053;-75
2023/12/18 07:07:29;;;;;;;46.85;21.33;;;;;;;;;;10399267;28;20063;-77
2023/12/18 07:12:29;;;;;;;45.00;21.00;;;;;;;;;;10398709;28;20025;-77
2023/12/18 07:17:29;;;;;;;46.30;23.60;;;;;;;;;;10398758;28;20126;-76
2023/12/18 07:22:31;;;;;;;40.83;19.83;;;;;;;;;;10382362;28;20533;-77
2023/12/18 07:27:32;;;;;;;44.42;21.02;;;;;;;;;;10381832;28;20033;-77
2023/12/18 07:32:32;;;;;;;37.17;19.55;;;;;;;;;;10399773;28;20037;-77
2023/12/18 07:37:32;;;;;;;46.92;24.10;;;;;;;;;;10381757;28;20037;-78
2023/12/18 07:42:33;;;;;;;47.20;24.23;;;;;;;;;;10381534;28;20025;-77
2023/12/18 07:47:33;;;;;;;44.65;23.20;;;;;;;;;;10382736;28;20087;-78
2023/12/18 07:52:33;;;;;;;51.97;23.90;;;;;;;;;;10400807;28;20037;-77
2023/12/18 07:57:34;;;;;;;46.60;22.23;;;;;;;;;;10389023;28;20034;-76
2023/12/18 08:02:35;;;;;;;40.42;20.50;;;;;;;;;;10407147;28;20482;-76
2023/12/18 08:07:36;;;;;;;53.33;23.48;;;;;;;;;;10413766;28;20025;-78
2023/12/18 08:12:36;;;;;;;46.55;24.17;;;;;;;;;;10390282;28;20088;-78
2023/12/18 08:17:37;;;;;;;46.23;21.23;;;;;;;;;;10401257;28;20022;-79
2023/12/18 08:22:38;;;;;;;36.47;17.70;;;;;;;;;;10419970;28;20295;-78
2023/12/18 08:27:39;;;;;;;31.23;15.35;;;;;;;;;;10409411;28;20472;-77
2023/12/18 08:32:39;;;;;;;37.30;17.13;;;;;;;;;;10409662;28;20249;-76
2023/12/18 08:37:40;;;;;;;31.58;15.45;;;;;;;;;;10408133;28;20021;-77
2023/12/18 08:42:41;;;;;;;31.48;16.15;;;;;;;;;;10408371;28;20511;-80
2023/12/18 08:47:41;;;;;;;47.83;20.30;;;;;;;;;;10408473;28;20121;-77
2023/12/18 08:52:41;;;;;;;49.90;24.58;;;;;;;;;;10408096;28;20063;-81
2023/12/18 08:57:42;;;;;;;58.72;27.88;;;;;;;;;;10407583;28;20029;-78
2023/12/18 09:02:42;;;;;;;58.10;27.88;;;;;;;;;;10407888;28;20084;-79
2023/12/18 09:07:42;;;;;;;61.55;29.98;;;;;;;;;;10403337;28;20018;-77
2023/12/18 09:12:43;;;;;;;60.42;28.60;;;;;;;;;;10407092;28;20025;-79
2023/12/18 09:17:43;;;;;;;55.27;27.50;;;;;;;;;;10406886;28;20547;-75
2023/12/18 09:22:46;;;;;;;48.22;24.85;;;;;;;;;;10407731;28;20045;-77
2023/12/18 09:27:46;;;;;;;58.80;30.35;;;;;;;;;;10407634;28;20021;-77
2023/12/18 09:32:46;;;;;;;55.55;29.35;;;;;;;;;;10407468;28;20451;-77
2023/12/18 09:37:46;;;;;;;69.25;35.42;;;;;;;;;;10405965;28;20075;-80
2023/12/18 09:42:46;;;;;;;;;;;;;;;;;;10389842;28;20087;-78
2023/12/18 09:47:48;;;;;;;1039.68;933.00;;;;;;;;;;10406555;28;20812;-78
2023/12/18 09:52:55;;;;;;;55.33;32.05;;;;;;;;;;10405667;28;20520;-81
2023/12/18 09:57:56;;;;;;;794.05;681.88;;;;;;;;;;10389373;28;20037;-80
2023/12/18 10:02:57;;;;;;;857.50;593.40;;;;;;;;;;10388382;28;20491;-77
2023/12/18 10:08:01;;;;;;;853.60;533.30;;;;;;;;;;10356801;28;20061;-76
2023/12/18 10:13:05;;;;;;;938.08;784.67;;;;;;;;;;10364152;28;20037;-78
2023/12/18 10:18:06;;;;;;;41.05;21.67;;;;;;;;;;10397944;28;20929;-76
2023/12/18 10:23:07;;;;;;;419.63;373.43;;;;;;;;;;10399283;28;20120;-77
2023/12/18 10:28:07;;;;;;;50.58;34.85;;;;;;;;;;10405953;28;20291;-80
2023/12/18 10:33:09;;;;;;;489.97;418.47;;;;;;;;;;10403643;28;20031;-76
2023/12/18 10:38:10;;;;;;;39.35;21.45;;;;;;;;;;10405339;28;20025;-77
2023/12/18 10:43:20;;;;;;;533.35;477.13;;;;;;;;;;10387135;28;20439;-76
2023/12/18 10:48:20;;;;;;;537.72;478.80;;;;;;;;;;10387124;28;20548;-79
2023/12/18 10:53:21;;;;;;;40.47;21.57;;;;;;;;;;10405051;28;20021;-80
2023/12/18 10:58:21;;;;;;;413.33;370.20;;;;;;;;;;10404086;28;20140;-77
2023/12/18 11:03:26;;;;;;;47.55;27.10;;;;;;;;;;10404603;28;20124;-78
2023/12/18 11:08:27;;;;;;;53.85;29.50;;;;;;;;;;10404105;28;20017;-83
2023/12/18 11:13:28;;;;;;;60.13;28.70;;;;;;;;;;10404151;28;20073;-75
2023/12/18 11:18:28;;;;;;;;;;;;;;;;;;10403994;28;20030;-77
2023/12/18 11:23:29;;;;;;;;;;;;;;;;;;10387074;28;19920;-78
2023/12/18 11:28:30;;;;;;;1048.05;939.78;;;;;;;;;;10384812;28;20409;-77
2023/12/18 11:33:30;;;;;;;47.55;24.52;;;;;;;;;;10375100;28;20052;-82
2023/12/18 11:38:32;;;;;;;48.05;23.10;;;;;;;;;;10369292;28;20491;-82
2023/12/18 11:43:37;;;;;;;42.75;25.45;;;;;;;;;;10401386;28;20114;-79
2023/12/18 11:48:39;;;;;;;51.80;24.90;;;;;;;;;;10402891;28;20112;-77
2023/12/18 11:53:39;;;;;;;53.22;25.95;;;;;;;;;;10383278;28;20106;-77
2023/12/18 11:58:43;;;;;;;51.20;27.55;;;;;;;;;;10400612;28;20106;-76
2023/12/18 12:03:44;;;;;;;51.63;28.35;;;;;;;;;;10335945;28;20081;-77
2023/12/18 12:08:49;;;;;;;67.68;32.20;;;;;;;;;;10323258;28;20545;-78
2023/12/18 12:13:55;;;;;;;68.57;34.78;;;;;;;;;;10319701;28;20501;-79
2023/12/18 12:18:55;;;;;;;69.68;37.17;;;;;;;;;;10318762;28;20030;-77
2023/12/18 12:23:56;;;;;;;76.93;40.15;;;;;;;;;;10321507;28;20073;-80
2023/12/18 12:28:58;;;;;;;78.97;39.15;;;;;;;;;;10335501;28;20469;-78
2023/12/18 12:33:58;;;;;;;74.50;34.55;;;;;;;;;;10334817;28;20018;-77
2023/12/18 12:39:00;;;;;;;76.10;37.20;;;;;;;;;;10339143;28;20023;-79
2023/12/18 12:44:02;;;;;;;72.22;38.08;;;;;;;;;;10320094;28;20026;-77
2023/12/18 12:49:02;;;;;;;73.72;37.47;;;;;;;;;;10319485;28;20525;-75
2023/12/18 12:54:05;;;;;;;81.93;37.17;;;;;;;;;;10320945;28;20402;-76
2023/12/18 12:59:08;;;;;;;73.18;36.70;;;;;;;;;;10319382;28;20417;-77
2023/12/18 13:04:08;;;;;;;76.43;37.65;;;;;;;;;;10313771;28;20050;-78
2023/12/18 13:09:09;;;;;;;71.95;37.70;;;;;;;;;;10328364;28;20030;-78
2023/12/18 13:14:09;;;;;;;77.57;37.15;;;;;;;;;;10342101;28;20042;-78
2023/12/18 13:19:09;;;;;;;73.35;38.25;;;;;;;;;;10341553;28;20030;-77
2023/12/18 13:24:11;;;;;;;77.80;37.00;;;;;;;;;;10326817;28;20507;-78
2023/12/18 13:29:11;;;;;;;71.32;38.17;;;;;;;;;;10325704;28;20050;-76
2023/12/18 13:34:13;;;;;;;75.35;36.10;;;;;;;;;;10342042;28;20117;-75
2023/12/18 13:39:14;;;;;;;66.28;34.70;;;;;;;;;;10326246;28;20026;-77
2023/12/18 13:44:14;;;;;;;73.47;35.80;;;;;;;;;;10325812;28;20049;-78
2023/12/18 13:49:16;;;;;;;63.65;33.10;;;;;;;;;;10322377;28;20030;-77
2023/12/18 13:54:16;;;;;;;57.67;28.52;;;;;;;;;;10321644;28;20038;-75
2023/12/18 13:59:16;;;;;;;64.20;31.88;;;;;;;;;;10322613;28;20030;-77
2023/12/18 14:04:16;;;;;;;58.83;27.13;;;;;;;;;;10304782;28;20050;-76
2023/12/18 14:09:17;;;;;;;46.58;24.33;;;;;;;;;;10335043;28;20030;-78
2023/12/18 14:14:17;;;;;;;43.17;23.20;;;;;;;;;;10343732;28;20031;-75
2023/12/18 14:19:17;;;;;;;43.78;22.55;;;;;;;;;;10351954;28;20022;-78
2023/12/18 14:24:17;;;;;;;39.83;22.50;;;;;;;;;;10331469;28;20149;-78
2023/12/18 14:29:18;;;;;;;42.63;21.85;;;;;;;;;;10338844;28;20026;-78
2023/12/18 14:34:18;;;;;;;38.55;21.27;;;;;;;;;;10338548;28;20041;-75
2023/12/18 14:39:18;;;;;;;43.42;23.98;;;;;;;;;;10339100;28;20062;-77
2023/12/18 14:44:20;;;;;;;56.03;25.75;;;;;;;;;;10338527;28;20644;-76
2023/12/18 14:49:21;;;;;;;51.03;26.85;;;;;;;;;;10338807;28;20552;-76
2023/12/18 14:54:21;;;;;;;46.33;24.67;;;;;;;;;;10338085;28;20022;-77
2023/12/18 14:59:21;;;;;;;49.22;24.10;;;;;;;;;;10328178;28;20561;-77
2023/12/18 15:04:22;;;;;;;53.08;25.70;;;;;;;;;;10336611;28;20063;-78
2023/12/18 15:09:22;;;;;;;43.57;22.67;;;;;;;;;;10316536;28;20220;-76
2023/12/18 15:14:22;;;;;;;54.58;27.25;;;;;;;;;;10326977;28;20026;-76
2023/12/18 15:19:22;;;;;;;61.20;26.13;;;;;;;;;;10333835;28;20058;-76
2023/12/18 15:24:23;;;;;;;52.28;25.23;;;;;;;;;;10333941;28;20045;-77
2023/12/18 15:29:26;;;;;;;45.78;23.65;;;;;;;;;;10334992;28;20464;-77
2023/12/18 15:34:26;;;;;;;54.50;24.42;;;;;;;;;;10333143;28;20208;-76
2023/12/18 15:39:27;;;;;;;35.97;18.40;;;;;;;;;;10334208;28;20173;-77
2023/12/18 15:44:27;;;;;;;40.97;21.25;;;;;;;;;;10318743;28;20040;-76
2023/12/18 15:49:29;;;;;;;36.20;19.08;;;;;;;;;;10317688;28;20368;-79
2023/12/18 15:54:30;;;;;;;41.63;21.73;;;;;;;;;;10334007;28;20141;-77
2023/12/18 15:59:30;;;;;;;39.63;18.80;;;;;;;;;;10332764;28;20500;-79
2023/12/18 16:04:30;;;;;;;46.77;21.83;;;;;;;;;;10366806;28;20052;-76
2023/12/18 16:09:30;;;;;;;34.20;19.65;;;;;;;;;;10398257;28;20059;-76
2023/12/18 16:14:31;;;;;;;48.35;23.50;;;;;;;;;;10398696;28;20037;-75
2023/12/18 16:19:32;;;;;;;38.22;20.30;;;;;;;;;;10399873;28;20388;-76
2023/12/18 16:24:32;;;;;;;49.47;20.25;;;;;;;;;;10381372;28;20139;-78
2023/12/18 16:29:38;;;;;;;44.30;18.35;;;;;;;;;;10398246;28;20717;-78
2023/12/18 16:34:39;;;;;;;35.28;20.25;;;;;;;;;;10398469;28;20045;-76
2023/12/18 16:39:43;;;;;;;41.95;21.27;;;;;;;;;;10398845;28;20483;-77
2023/12/18 16:44:45;;;;;;;38.22;21.05;;;;;;;;;;10386572;28;20022;-75
2023/12/18 16:49:49;;;;;;;45.67;22.45;;;;;;;;;;10384838;28;20052;-76
2023/12/18 16:54:50;;;;;;;46.15;21.75;;;;;;;;;;10389992;28;20022;-75
2023/12/18 16:59:50;;;;;;;40.50;22.05;;;;;;;;;;10368032;28;20060;-77
2023/12/18 17:04:50;;;;;;;33.20;19.25;;;;;;;;;;10379503;28;20045;-76
2023/12/18 17:09:50;;;;;;;43.97;22.35;;;;;;;;;;10369185;28;20488;-77
2023/12/18 17:14:51;;;;;;;39.80;20.30;;;;;;;;;;10385914;28;20092;-79
2023/12/18 17:19:51;;;;;;;40.42;22.42;;;;;;;;;;10400992;28;20554;-77
2023/12/18 17:24:52;;;;;;;48.03;24.20;;;;;;;;;;10383073;28;20026;-76
2023/12/18 17:29:52;;;;;;;51.42;27.92;;;;;;;;;;10384905;28;20026;-76
2023/12/18 17:34:52;;;;;;;48.22;24.95;;;;;;;;;;10383006;28;20144;-76
2023/12/18 17:39:52;;;;;;;46.88;22.98;;;;;;;;;;10389066;28;20025;-77
2023/12/18 17:44:59;;;;;;;48.92;24.67;;;;;;;;;;10369348;28;20045;-82
2023/12/18 17:49:59;;;;;;;44.58;24.02;;;;;;;;;;10379553;28;20084;-75
2023/12/18 17:54:59;;;;;;;45.25;25.73;;;;;;;;;;10383672;28;20445;-75
2023/12/18 18:00:00;;;;;;;38.58;23.30;;;;;;;;;;10391232;28;20464;-77
2023/12/18 18:05:00;;;;;;;43.40;22.30;;;;;;;;;;10372661;28;20046;-77
2023/12/18 18:10:00;;;;;;;47.63;24.67;;;;;;;;;;10382639;28;20921;-76
2023/12/18 18:15:01;;;;;;;48.65;25.90;;;;;;;;;;10359762;28;20511;-76
2023/12/18 18:20:02;;;;;;;43.58;24.65;;;;;;;;;;10376008;28;20036;-75
2023/12/18 18:25:03;;;;;;;50.95;25.27;;;;;;;;;;10378816;28;20638;-75
2023/12/18 18:30:04;;;;;;;49.63;26.35;;;;;;;;;;10382028;28;20025;-79
2023/12/18 18:35:04;;;;;;;51.63;26.27;;;;;;;;;;10382930;28;20021;-77
2023/12/18 18:40:05;;;;;;;52.70;25.45;;;;;;;;;;10366263;28;20049;-74
2023/12/18 18:45:05;;;;;;;49.92;25.83;;;;;;;;;;10346029;28;20018;-77
2023/12/18 18:50:05;;;;;;;50.00;27.53;;;;;;;;;;10366600;28;20484;-78
2023/12/18 18:55:07;;;;;;;50.42;27.05;;;;;;;;;;10380497;28;20630;-81
2023/12/18 19:00:08;;;;;;;55.13;28.58;;;;;;;;;;10365636;28;20034;-75
2023/12/18 19:05:08;;;;;;;62.08;28.80;;;;;;;;;;10376568;28;20052;-76
2023/12/18 19:10:08;;;;;;;62.28;27.92;;;;;;;;;;10388846;28;20048;-77
2023/12/18 19:15:11;;;;;;;49.13;28.63;;;;;;;;;;10383794;28;20025;-77
2023/12/18 19:20:11;;;;;;;64.07;30.42;;;;;;;;;;10379713;28;20064;-78
2023/12/18 19:25:12;;;;;;;64.22;28.77;;;;;;;;;;10369721;28;20104;-78
2023/12/18 19:30:14;;;;;;;51.67;25.98;;;;;;;;;;10371883;28;20116;-78
2023/12/18 19:35:15;;;;;;;59.35;28.95;;;;;;;;;;10383970;28;20037;-78
2023/12/18 19:40:16;;;;;;;51.42;26.42;;;;;;;;;;10380367;28;20109;-76
2023/12/18 19:45:16;;;;;;;50.67;26.65;;;;;;;;;;10380486;28;20029;-76
2023/12/18 19:50:17;;;;;;;53.83;24.10;;;;;;;;;;10355023;28;20034;-76
2023/12/18 19:55:19;;;;;;;56.67;26.88;;;;;;;;;;10368027;28;20049;-83
2023/12/18 20:00:19;;;;;;;69.40;32.38;;;;;;;;;;10382170;28;20029;-79
2023/12/18 20:05:20;;;;;;;62.60;32.53;;;;;;;;;;10373052;28;20037;-77
2023/12/18 20:10:20;;;;;;;54.05;30.50;;;;;;;;;;10370167;28;20095;-77
2023/12/18 20:15:21;;;;;;;58.78;30.65;;;;;;;;;;10373329;28;20516;-76
2023/12/18 20:20:24;;;;;;;52.60;28.47;;;;;;;;;;10378378;28;20389;-78
2023/12/18 20:25:28;;;;;;;62.10;31.63;;;;;;;;;;10381162;28;20282;-75
2023/12/18 20:30:28;;;;;;;63.90;30.15;;;;;;;;;;10371443;28;20496;-75
2023/12/18 20:35:30;;;;;;;64.78;30.23;;;;;;;;;;10380346;28;20032;-78
2023/12/18 20:40:30;;;;;;;67.93;34.63;;;;;;;;;;10343661;28;20071;-77
2023/12/18 20:45:30;;;;;;;65.93;33.33;;;;;;;;;;10354402;28;20532;-75
2023/12/18 20:50:31;;;;;;;65.70;33.40;;;;;;;;;;10356378;28;20018;-76
2023/12/18 20:55:33;;;;;;;63.38;31.90;;;;;;;;;;10367553;28;20022;-76
2023/12/18 21:00:34;;;;;;;59.28;29.88;;;;;;;;;;10380247;28;20031;-79
2023/12/18 21:05:34;;;;;;;69.20;33.58;;;;;;;;;;10363430;28;20381;-78
2023/12/18 21:10:35;;;;;;;57.75;29.48;;;;;;;;;;10364404;28;20040;-77
2023/12/18 21:15:36;;;;;;;61.20;30.45;;;;;;;;;;10366325;28;20071;-78
2023/12/18 21:20:36;;;;;;;66.72;30.30;;;;;;;;;;10362912;28;20180;-77
2023/12/18 21:25:37;;;;;;;59.47;29.85;;;;;;;;;;10366323;28;20120;-77
2023/12/18 21:30:37;;;;;;;58.78;29.23;;;;;;;;;;10373717;28;20028;-78
2023/12/18 21:35:37;;;;;;;66.93;32.42;;;;;;;;;;10379478;28;20018;-76
2023/12/18 21:40:37;;;;;;;54.08;30.20;;;;;;;;;;10375489;28;20485;-75
2023/12/18 21:45:38;;;;;;;62.47;33.05;;;;;;;;;;10369330;28;20017;-76
2023/12/18 21:50:40;;;;;;;60.57;30.83;;;;;;;;;;10381658;28;20034;-75
2023/12/18 21:55:40;;;;;;;61.38;29.20;;;;;;;;;;10381579;28;21770;-74
2023/12/18 22:00:40;;;;;;;56.97;29.50;;;;;;;;;;10400743;28;20526;-74
2023/12/18 22:05:41;;;;;;;56.28;26.58;;;;;;;;;;10402366;28;20182;-74
2023/12/18 22:10:41;;;;;;;50.50;29.48;;;;;;;;;;10372547;28;20095;-75
2023/12/18 22:15:42;;;;;;;51.00;27.23;;;;;;;;;;10400224;28;20111;-79
2023/12/18 22:20:43;;;;;;;58.75;28.83;;;;;;;;;;10399649;28;20431;-80
2023/12/18 22:25:44;;;;;;;49.80;27.70;;;;;;;;;;10401106;28;20448;-74
2023/12/18 22:30:44;;;;;;;51.58;27.75;;;;;;;;;;10401096;28;20033;-75
2023/12/18 22:35:44;;;;;;;52.47;26.77;;;;;;;;;;10390977;28;20017;-75
2023/12/18 22:40:45;;;;;;;52.55;27.73;;;;;;;;;;10399198;28;20316;-78
2023/12/18 22:45:45;;;;;;;53.25;27.65;;;;;;;;;;10410493;28;20017;-78
2023/12/18 22:50:45;;;;;;;55.75;29.13;;;;;;;;;;10395761;28;20026;-75
2023/12/18 22:55:46;;;;;;;57.83;29.08;;;;;;;;;;10363101;28;20428;-75
2023/12/18 23:00:46;;;;;;;54.63;28.85;;;;;;;;;;10403175;28;20050;-76
2023/12/18 23:05:46;;;;;;;53.42;28.08;;;;;;;;;;10386062;28;20025;-75
2023/12/18 23:10:49;;;;;;;57.78;30.20;;;;;;;;;;10404565;28;20028;-75
2023/12/18 23:15:49;;;;;;;58.15;28.90;;;;;;;;;;10398016;28;20018;-74
2023/12/18 23:20:49;;;;;;;55.55;30.50;;;;;;;;;;10399357;28;20075;-77
2023/12/18 23:25:51;;;;;;;58.92;29.15;;;;;;;;;;10397881;28;20036;-75
2023/12/18 23:30:51;;;;;;;51.83;27.83;;;;;;;;;;10381023;28;20490;-75
2023/12/18 23:35:51;;;;;;;55.55;30.23;;;;;;;;;;10404184;28;20033;-74
2023/12/18 23:40:53;;;;;;;47.90;26.85;;;;;;;;;;10405038;28;20605;-77
2023/12/18 23:45:53;;;;;;;55.35;30.02;;;;;;;;;;10381276;28;20455;-75
2023/12/18 23:50:53;;;;;;;55.55;28.50;;;;;;;;;;10396771;28;20018;-75
2023/12/18 23:55:53;;;;;;;54.25;29.52;;;;;;;;;;10380341;28;20492;-75
